createdAt,value
2023-03-27T00:01:06.444Z,44.29
2023-03-27T00:03:32.870Z,44.24
2023-03-27T00:05:59.190Z,44.47
2023-03-27T00:08:25.503Z,44.58
2023-03-27T00:10:51.861Z,44.59
2023-03-27T00:13:18.243Z,44.69
2023-03-27T00:15:44.589Z,44.74
2023-03-27T00:18:10.949Z,44.78
2023-03-27T00:20:37.359Z,44.59
2023-03-27T00:23:03.682Z,45.12
2023-03-27T00:25:30.017Z,45.14
2023-03-27T00:27:56.365Z,45.08
2023-03-27T00:30:22.736Z,44.89
2023-03-27T00:32:49.117Z,45.28
2023-03-27T00:35:15.486Z,45.16
2023-03-27T00:37:41.791Z,45.30
2023-03-27T00:40:08.231Z,45.71
2023-03-27T00:42:34.525Z,45.72
2023-03-27T00:45:00.914Z,46.19
2023-03-27T00:47:27.299Z,46.44
2023-03-27T00:49:53.698Z,46.50
2023-03-27T00:52:20.012Z,46.51
2023-03-27T00:54:46.364Z,46.67
2023-03-27T00:57:12.804Z,46.71
2023-03-27T00:59:39.068Z,46.83
2023-03-27T01:02:05.385Z,47.06
2023-03-27T01:04:31.761Z,46.79
2023-03-27T01:06:58.154Z,47.17
2023-03-27T01:09:24.496Z,47.22
2023-03-27T01:11:50.865Z,47.45
2023-03-27T01:14:17.256Z,47.27
2023-03-27T01:16:43.598Z,47.44
2023-03-27T01:19:10.046Z,47.68
2023-03-27T01:21:36.421Z,47.31
2023-03-27T01:24:02.800Z,47.38
2023-03-27T01:26:36.732Z,47.41
2023-03-27T01:28:55.540Z,47.00
2023-03-27T01:31:23.128Z,47.55
2023-03-27T01:33:48.348Z,47.52
2023-03-27T01:36:14.775Z,47.51
2023-03-27T01:38:41.275Z,47.79
2023-03-27T01:41:07.609Z,47.70
2023-03-27T01:43:33.998Z,48.00
2023-03-27T01:46:00.359Z,48.03
2023-03-27T01:48:26.750Z,48.00
2023-03-27T01:50:53.067Z,48.48
2023-03-27T01:53:19.453Z,48.44
2023-03-27T01:55:45.802Z,48.03
2023-03-27T01:58:12.172Z,48.73
2023-03-27T02:00:51.297Z,48.58
2023-03-27T02:03:04.927Z,48.84
2023-03-27T02:05:31.204Z,48.52
2023-03-27T02:07:57.626Z,48.50
2023-03-27T02:10:23.983Z,48.55
2023-03-27T02:12:50.353Z,49.04
2023-03-27T02:15:24.129Z,49.23
2023-03-27T02:17:43.038Z,48.86
2023-03-27T02:20:09.369Z,48.75
2023-03-27T02:22:37.787Z,49.04
2023-03-27T02:25:02.172Z,49.06
2023-03-27T02:27:28.598Z,49.08
2023-03-27T02:29:54.918Z,49.03
2023-03-27T02:32:21.381Z,49.13
2023-03-27T02:34:47.662Z,48.92
2023-03-27T02:37:13.998Z,49.07
2023-03-27T02:39:40.321Z,49.26
2023-03-27T02:42:06.710Z,49.15
2023-03-27T02:44:33.083Z,49.30
2023-03-27T02:46:59.418Z,49.14
2023-03-27T02:49:25.777Z,49.00
2023-03-27T02:51:52.145Z,48.80
2023-03-27T02:54:18.467Z,49.10
2023-03-27T02:56:44.829Z,48.88
2023-03-27T02:59:11.146Z,49.24
2023-03-27T03:01:37.722Z,49.66
2023-03-27T03:04:04.016Z,49.28
2023-03-27T03:06:30.372Z,49.61
2023-03-27T03:08:56.675Z,49.68
2023-03-27T03:11:23.022Z,49.29
2023-03-27T03:13:49.429Z,49.43
2023-03-27T03:16:15.817Z,49.49
2023-03-27T03:18:42.135Z,49.72
2023-03-27T03:21:10.896Z,49.85
2023-03-27T03:23:37.233Z,49.89
2023-03-27T03:26:03.554Z,50.06
2023-03-27T03:28:29.942Z,49.90
2023-03-27T03:30:56.437Z,49.90
2023-03-27T03:33:22.596Z,49.94
2023-03-27T03:35:49.023Z,49.89
2023-03-27T03:38:15.310Z,50.53
2023-03-27T03:40:41.690Z,49.56
2023-03-27T03:43:08.006Z,49.22
2023-03-27T03:45:34.348Z,49.35
2023-03-27T03:48:00.741Z,49.08
2023-03-27T03:50:27.081Z,48.92
2023-03-27T03:52:53.415Z,49.09
2023-03-27T03:55:19.897Z,49.38
2023-03-27T03:57:46.233Z,49.22
2023-03-27T04:00:12.587Z,49.45
2023-03-27T04:02:39.095Z,48.97
2023-03-27T04:05:09.526Z,49.00
2023-03-27T04:07:31.712Z,49.00
2023-03-27T04:09:58.076Z,49.07
2023-03-27T04:12:24.383Z,49.20
2023-03-27T04:14:50.868Z,49.16
2023-03-27T04:17:17.192Z,49.40
2023-03-27T04:19:43.541Z,49.42
2023-03-27T04:22:09.855Z,49.86
2023-03-27T04:24:36.242Z,49.89
2023-03-27T04:27:02.547Z,50.44
2023-03-27T04:29:28.965Z,50.23
2023-03-27T04:31:55.317Z,50.66
2023-03-27T04:34:21.714Z,64.12
2023-03-27T04:36:48.113Z,63.06
2023-03-27T04:39:14.439Z,63.89
2023-03-27T04:41:40.842Z,61.61
2023-03-27T04:44:07.247Z,61.25
2023-03-27T04:46:33.637Z,58.82
2023-03-27T04:49:00.215Z,58.69
2023-03-27T04:51:26.609Z,58.06
2023-03-27T04:53:52.964Z,58.84
2023-03-27T04:56:19.390Z,58.64
2023-03-27T04:58:45.751Z,58.70
2023-03-27T05:01:12.360Z,59.15
2023-03-27T05:03:38.677Z,59.01
2023-03-27T05:06:05.012Z,59.04
2023-03-27T05:08:31.406Z,59.17
2023-03-27T05:10:57.897Z,59.15
2023-03-27T05:13:24.109Z,59.06
2023-03-27T05:15:50.498Z,59.51
2023-03-27T05:18:16.863Z,59.36
2023-03-27T05:20:43.278Z,59.34
2023-03-27T05:23:10.667Z,59.30
2023-03-27T05:25:37.021Z,59.25
2023-03-27T05:28:03.670Z,59.34
2023-03-27T05:30:30.025Z,58.38
2023-03-27T05:32:56.422Z,58.70
2023-03-27T05:35:22.723Z,58.33
2023-03-27T05:37:49.034Z,57.70
2023-03-27T05:40:15.401Z,58.19
2023-03-27T05:42:41.770Z,57.58
2023-03-27T05:45:08.124Z,57.94
2023-03-27T05:47:34.558Z,57.21
2023-03-27T05:50:00.894Z,57.74
2023-03-27T05:52:28.846Z,57.04
2023-03-27T05:54:53.652Z,56.71
2023-03-27T05:57:20.013Z,56.90
2023-03-27T05:59:46.330Z,63.51
2023-03-27T06:02:12.770Z,72.64
2023-03-27T06:04:39.138Z,67.88
2023-03-27T06:07:05.467Z,60.31
2023-03-27T06:09:34.581Z,55.60
2023-03-27T06:12:00.985Z,54.31
2023-03-27T06:14:27.299Z,52.38
2023-03-27T06:16:56.059Z,52.85
2023-03-27T06:19:22.417Z,52.99
2023-03-27T06:21:48.858Z,54.14
2023-03-27T06:24:15.232Z,54.20
2023-03-27T06:26:41.602Z,55.35
2023-03-27T06:29:08.671Z,55.72
2023-03-27T06:31:34.534Z,55.76
2023-03-27T06:34:00.775Z,53.25
2023-03-27T06:36:27.404Z,52.20
2023-03-27T06:38:53.705Z,51.41
2023-03-27T06:41:32.262Z,51.51
2023-03-27T06:43:59.685Z,52.06
2023-03-27T06:46:35.296Z,52.50
2023-03-27T06:48:53.556Z,53.03
2023-03-27T06:51:19.934Z,52.09
2023-03-27T06:53:46.362Z,53.61
2023-03-27T06:56:12.792Z,54.04
2023-03-27T06:58:39.460Z,54.34
2023-03-27T07:01:05.868Z,54.48
2023-03-27T07:03:32.246Z,54.17
2023-03-27T07:05:59.132Z,54.42
2023-03-27T07:08:25.629Z,55.11
2023-03-27T07:11:07.445Z,56.59
2023-03-27T07:13:18.063Z,57.13
2023-03-27T07:15:44.541Z,56.07
2023-03-27T07:18:10.894Z,52.91
2023-03-27T07:20:37.219Z,52.79
2023-03-27T07:23:03.666Z,51.26
2023-03-27T07:25:30.031Z,50.66
2023-03-27T07:27:56.458Z,50.39
2023-03-27T07:30:22.820Z,50.54
2023-03-27T07:32:49.241Z,50.48
2023-03-27T07:35:15.563Z,49.85
2023-03-27T07:37:41.873Z,49.33
2023-03-27T07:40:08.302Z,49.02
2023-03-27T07:42:34.724Z,48.35
2023-03-27T07:45:02.316Z,48.82
2023-03-27T07:47:27.432Z,49.71
2023-03-27T07:49:56.249Z,49.57
2023-03-27T07:52:22.640Z,49.38
2023-03-27T07:54:49.123Z,50.31
2023-03-27T07:57:15.523Z,49.99
2023-03-27T07:59:42.143Z,50.54
2023-03-27T08:02:08.489Z,49.95
2023-03-27T08:04:34.942Z,50.04
2023-03-27T08:07:03.414Z,49.64
2023-03-27T08:09:29.745Z,49.65
2023-03-27T08:11:56.407Z,49.46
2023-03-27T08:14:22.787Z,49.75
2023-03-27T08:16:49.180Z,51.23
2023-03-27T08:19:15.597Z,51.22
2023-03-27T08:21:41.933Z,50.39
2023-03-27T08:24:08.339Z,50.35
2023-03-27T08:26:34.639Z,50.94
2023-03-27T08:29:01.055Z,50.73
2023-03-27T08:31:27.424Z,50.62
2023-03-27T08:33:53.823Z,51.26
2023-03-27T08:36:20.218Z,51.01
2023-03-27T08:38:46.517Z,50.96
2023-03-27T08:41:12.876Z,51.30
2023-03-27T08:43:39.532Z,50.76
2023-03-27T08:46:05.955Z,51.37
2023-03-27T08:48:32.259Z,51.96
2023-03-27T08:50:58.630Z,50.88
2023-03-27T08:53:24.964Z,50.30
2023-03-27T08:55:51.379Z,50.89
2023-03-27T08:58:17.802Z,51.16
2023-03-27T09:00:44.180Z,51.11
2023-03-27T09:03:10.692Z,51.11
2023-03-27T09:05:36.862Z,52.19
2023-03-27T09:08:03.226Z,52.83
2023-03-27T09:10:29.617Z,53.26
2023-03-27T09:12:56.004Z,53.58
2023-03-27T09:15:22.377Z,53.72
2023-03-27T09:17:48.810Z,53.80
2023-03-27T09:20:15.093Z,52.92
2023-03-27T09:22:41.468Z,52.71
2023-03-27T09:25:07.902Z,52.02
2023-03-27T09:27:38.074Z,51.83
2023-03-27T09:30:05.896Z,51.45
2023-03-27T09:32:33.235Z,50.08
2023-03-27T09:34:57.288Z,49.91
2023-03-27T09:37:23.694Z,49.33
2023-03-27T09:39:50.110Z,49.02
2023-03-27T09:42:16.425Z,49.02
2023-03-27T09:44:43.197Z,48.89
2023-03-27T09:47:09.929Z,48.99
2023-03-27T09:49:36.096Z,49.19
2023-03-27T09:52:02.484Z,49.75
2023-03-27T09:54:29.910Z,50.14
2023-03-27T09:56:56.383Z,50.39
2023-03-27T09:59:22.699Z,50.34
2023-03-27T10:01:49.023Z,50.17
2023-03-27T10:04:15.468Z,50.32
2023-03-27T10:06:42.019Z,50.50
2023-03-27T10:09:08.388Z,51.03
2023-03-27T10:11:34.754Z,51.32
2023-03-27T10:14:01.123Z,51.74
2023-03-27T10:16:27.603Z,51.50
2023-03-27T10:18:53.859Z,51.68
2023-03-27T10:21:20.161Z,51.47
2023-03-27T10:23:46.593Z,51.57
2023-03-27T10:26:12.890Z,51.35
2023-03-27T10:28:39.304Z,50.95
2023-03-27T10:31:05.724Z,49.58
2023-03-27T10:33:32.117Z,49.52
2023-03-27T10:35:58.611Z,49.67
2023-03-27T10:38:24.950Z,49.73
2023-03-27T10:40:51.272Z,49.85
2023-03-27T10:43:17.754Z,49.88
2023-03-27T10:45:44.250Z,50.05
2023-03-27T10:48:10.690Z,50.35
2023-03-27T10:50:37.048Z,50.01
2023-03-27T10:53:03.441Z,49.46
2023-03-27T10:55:29.761Z,49.08
2023-03-27T10:57:56.165Z,49.54
2023-03-27T11:00:22.565Z,49.92
2023-03-27T11:02:49.093Z,50.10
2023-03-27T11:05:15.407Z,50.49
2023-03-27T11:07:41.801Z,50.94
2023-03-27T11:10:08.194Z,50.81
2023-03-27T11:12:34.584Z,51.12
2023-03-27T11:15:01.054Z,51.57
2023-03-27T11:17:29.006Z,52.05
2023-03-27T11:19:53.922Z,52.46
2023-03-27T11:22:20.296Z,53.07
2023-03-27T11:24:46.642Z,53.23
2023-03-27T11:27:14.575Z,53.58
2023-03-27T11:29:39.543Z,53.68
2023-03-27T11:32:05.859Z,53.81
2023-03-27T11:34:32.198Z,53.95
2023-03-27T11:36:58.627Z,54.19
2023-03-27T11:39:24.991Z,54.42
2023-03-27T11:41:51.370Z,54.76
2023-03-27T11:44:17.733Z,54.99
2023-03-27T11:46:44.142Z,55.19
2023-03-27T11:49:10.463Z,55.33
2023-03-27T11:51:36.813Z,55.35
2023-03-27T11:54:03.250Z,55.55
2023-03-27T11:56:29.622Z,55.92
2023-03-27T11:58:55.995Z,56.44
2023-03-27T12:01:22.455Z,57.18
2023-03-27T12:03:48.935Z,58.14
2023-03-27T12:06:15.199Z,59.00
2023-03-27T12:08:42.650Z,59.93
2023-03-27T12:11:08.179Z,60.59
2023-03-27T12:13:41.291Z,60.57
2023-03-27T12:16:00.861Z,60.42
2023-03-27T12:18:35.399Z,60.73
2023-03-27T12:20:53.937Z,61.33
2023-03-27T12:23:20.095Z,61.71
2023-03-27T12:25:48.593Z,61.72
2023-03-27T12:28:22.038Z,62.13
2023-03-27T12:30:41.326Z,62.35
2023-03-27T12:33:10.184Z,62.50
2023-03-27T12:35:37.412Z,62.60
2023-03-27T12:38:03.788Z,62.90
2023-03-27T12:40:30.487Z,63.26
2023-03-27T12:42:56.834Z,63.23
2023-03-27T12:45:23.775Z,63.54
2023-03-27T12:47:50.268Z,63.47
2023-03-27T12:50:16.620Z,63.04
2023-03-27T12:52:43.040Z,63.20
2023-03-27T12:55:09.387Z,63.21
2023-03-27T12:57:36.857Z,62.90
2023-03-27T13:00:03.090Z,62.89
2023-03-27T13:02:29.588Z,62.45
2023-03-27T13:04:56.829Z,62.85
2023-03-27T13:07:23.548Z,62.86
2023-03-27T13:09:49.887Z,62.49
2023-03-27T13:12:16.233Z,62.72
2023-03-27T13:14:42.741Z,63.17
2023-03-27T13:17:09.100Z,63.30
2023-03-27T13:19:35.489Z,63.62
2023-03-27T13:22:01.839Z,63.30
2023-03-27T13:24:28.242Z,63.17
2023-03-27T13:26:54.848Z,63.65
2023-03-27T13:29:21.205Z,64.33
2023-03-27T13:31:47.548Z,64.57
2023-03-27T13:34:13.984Z,64.53
2023-03-27T13:36:40.258Z,64.92
2023-03-27T13:39:06.653Z,65.26
2023-03-27T13:41:33.116Z,65.66
2023-03-27T13:43:59.383Z,65.88
2023-03-27T13:46:25.882Z,66.05
2023-03-27T13:48:52.240Z,66.15
2023-03-27T13:51:18.951Z,66.22
2023-03-27T13:53:45.306Z,66.19
2023-03-27T13:56:11.825Z,66.16
2023-03-27T13:58:38.171Z,66.16
2023-03-27T14:01:04.540Z,66.35
2023-03-27T14:03:30.996Z,66.00
2023-03-27T14:05:57.768Z,66.04
2023-03-27T14:08:24.038Z,65.78
2023-03-27T14:10:50.444Z,65.69
2023-03-27T14:13:16.825Z,65.77
2023-03-27T14:15:43.149Z,65.64
2023-03-27T14:18:09.623Z,65.41
2023-03-27T14:20:35.888Z,65.44
2023-03-27T14:23:02.267Z,65.32
2023-03-27T14:25:28.619Z,65.34
2023-03-27T14:27:55.005Z,65.40
2023-03-27T14:30:21.478Z,65.41
2023-03-27T14:32:47.928Z,65.34
2023-03-27T14:35:14.195Z,65.19
2023-03-27T14:37:40.588Z,65.24
2023-03-27T14:40:06.971Z,65.20
2023-03-27T14:42:33.600Z,65.17
2023-03-27T14:44:59.698Z,65.04
2023-03-27T14:47:26.150Z,64.98
2023-03-27T14:49:52.492Z,65.03
2023-03-27T14:52:18.881Z,64.96
2023-03-27T14:54:54.672Z,64.63
2023-03-27T14:57:11.848Z,64.71
2023-03-27T14:59:38.130Z,64.47
2023-03-27T15:02:04.540Z,64.17
2023-03-27T15:04:30.988Z,63.54
2023-03-27T15:06:57.387Z,63.35
2023-03-27T15:09:23.741Z,63.36
2023-03-27T15:11:50.106Z,63.46
2023-03-27T15:14:16.655Z,63.95
2023-03-27T15:16:43.029Z,64.36
2023-03-27T15:19:09.354Z,64.51
2023-03-27T15:21:35.718Z,64.80
2023-03-27T15:24:02.113Z,65.19
2023-03-27T15:26:28.421Z,65.09
2023-03-27T15:28:54.741Z,65.40
2023-03-27T15:31:21.121Z,65.52
2023-03-27T15:33:47.424Z,65.85
2023-03-27T15:36:13.787Z,65.80
2023-03-27T15:38:40.159Z,66.05
2023-03-27T15:41:06.514Z,66.24
2023-03-27T15:43:32.899Z,66.38
2023-03-27T15:45:59.745Z,66.38
2023-03-27T15:48:25.876Z,66.49
2023-03-27T15:50:52.184Z,66.49
2023-03-27T15:53:18.570Z,66.67
2023-03-27T15:55:44.932Z,66.52
2023-03-27T15:58:11.345Z,66.80
2023-03-27T16:00:37.692Z,69.59
2023-03-27T16:03:04.090Z,74.23
2023-03-27T16:05:30.530Z,70.81
2023-03-27T16:07:56.859Z,69.32
2023-03-27T16:10:23.267Z,68.64
2023-03-27T16:12:49.673Z,68.27
2023-03-27T16:15:16.029Z,67.82
2023-03-27T16:17:42.426Z,67.76
2023-03-27T16:20:08.762Z,68.01
2023-03-27T16:22:35.105Z,68.02
2023-03-27T16:25:01.484Z,68.08
2023-03-27T16:27:27.892Z,68.22
2023-03-27T16:29:54.292Z,68.32
2023-03-27T16:32:20.618Z,68.21
2023-03-27T16:34:47.018Z,68.34
2023-03-27T16:37:13.378Z,68.58
2023-03-27T16:39:39.797Z,68.53
2023-03-27T16:42:08.666Z,68.31
2023-03-27T16:44:35.946Z,68.16
2023-03-27T16:47:03.412Z,68.03
2023-03-27T16:49:30.005Z,68.10
2023-03-27T16:51:56.361Z,68.06
2023-03-27T16:54:23.162Z,67.82
2023-03-27T16:56:49.556Z,67.51
2023-03-27T16:59:15.876Z,67.63
2023-03-27T17:01:42.208Z,67.68
2023-03-27T17:04:08.676Z,67.87
2023-03-27T17:06:34.986Z,67.81
2023-03-27T17:09:01.368Z,67.65
2023-03-27T17:11:27.906Z,67.70
2023-03-27T17:13:54.259Z,67.80
2023-03-27T17:16:20.620Z,67.92
2023-03-27T17:18:46.965Z,67.98
2023-03-27T17:21:13.322Z,68.12
2023-03-27T17:23:39.727Z,68.27
2023-03-27T17:26:06.131Z,68.13
2023-03-27T17:28:32.511Z,68.13
2023-03-27T17:31:04.769Z,68.05
2023-03-27T17:33:25.269Z,68.00
2023-03-27T17:35:51.624Z,67.96
2023-03-27T17:38:18.004Z,67.97
2023-03-27T17:40:44.385Z,68.26
2023-03-27T17:43:10.820Z,68.17
2023-03-27T17:45:37.185Z,68.20
2023-03-27T17:48:03.641Z,68.40
2023-03-27T17:50:29.996Z,68.59
2023-03-27T17:52:56.422Z,68.71
2023-03-27T17:55:22.769Z,68.87
2023-03-27T17:57:55.673Z,68.89
2023-03-27T18:00:15.525Z,68.97
2023-03-27T18:02:42.007Z,69.08
2023-03-27T18:05:08.246Z,69.01
2023-03-27T18:07:34.602Z,69.79
2023-03-27T18:10:00.977Z,70.02
2023-03-27T18:12:27.370Z,70.03
2023-03-27T18:14:53.836Z,70.04
2023-03-27T18:17:20.238Z,74.38
2023-03-27T18:19:46.573Z,74.68
2023-03-27T18:22:12.964Z,73.36
2023-03-27T18:24:39.406Z,72.16
2023-03-27T18:27:05.729Z,70.72
2023-03-27T18:29:32.079Z,70.10
2023-03-27T18:31:58.553Z,69.50
2023-03-27T18:34:24.832Z,69.28
2023-03-27T18:36:51.304Z,69.18
2023-03-27T18:39:17.624Z,69.00
2023-03-27T18:41:44.035Z,69.09
2023-03-27T18:44:10.411Z,69.21
2023-03-27T18:46:36.793Z,69.12
2023-03-27T18:49:13.605Z,68.76
2023-03-27T18:51:29.567Z,68.67
2023-03-27T18:53:55.927Z,68.62
2023-03-27T18:56:22.298Z,68.72
2023-03-27T18:58:48.749Z,68.87
2023-03-27T19:01:15.254Z,68.94
2023-03-27T19:03:41.540Z,69.02
2023-03-27T19:06:09.023Z,69.12
2023-03-27T19:08:35.394Z,69.32
2023-03-27T19:11:01.915Z,69.31
2023-03-27T19:13:28.173Z,69.34
2023-03-27T19:15:54.668Z,69.39
2023-03-27T19:18:21.120Z,69.25
2023-03-27T19:20:47.860Z,68.97
2023-03-27T19:23:14.587Z,69.14
2023-03-27T19:25:40.938Z,69.21
2023-03-27T19:28:07.366Z,69.20
2023-03-27T19:30:33.827Z,68.92
2023-03-27T19:33:00.239Z,68.77
2023-03-27T19:35:26.510Z,68.72
2023-03-27T19:37:52.822Z,68.29
2023-03-27T19:40:19.221Z,68.31
2023-03-27T19:42:45.566Z,68.13
2023-03-27T19:45:11.910Z,68.11
2023-03-27T19:47:38.391Z,68.23
2023-03-27T19:50:04.733Z,68.30
2023-03-27T19:52:31.116Z,68.30
2023-03-27T19:54:57.465Z,68.19
2023-03-27T19:57:23.939Z,68.21
2023-03-27T19:59:50.191Z,67.92
2023-03-27T20:02:16.674Z,67.74
2023-03-27T20:04:42.997Z,67.66
2023-03-27T20:07:09.372Z,67.59
2023-03-27T20:09:35.776Z,67.68
2023-03-27T20:12:02.223Z,67.48
2023-03-27T20:14:28.518Z,67.42
2023-03-27T20:16:54.873Z,67.07
2023-03-27T20:19:22.174Z,75.31
2023-03-27T20:21:47.629Z,83.03
2023-03-27T20:24:13.956Z,85.55
2023-03-27T20:26:40.370Z,86.05
2023-03-27T20:29:07.026Z,86.00
2023-03-27T20:31:33.396Z,86.08
2023-03-27T20:33:59.705Z,86.25
2023-03-27T20:36:26.139Z,86.36
2023-03-27T20:38:52.469Z,86.45
2023-03-27T20:41:18.825Z,86.62
2023-03-27T20:43:45.166Z,86.77
2023-03-27T20:46:11.505Z,86.89
2023-03-27T20:48:37.907Z,86.95
2023-03-27T20:51:04.593Z,87.01
2023-03-27T20:53:33.642Z,87.14
2023-03-27T20:56:00.127Z,87.23
2023-03-27T20:58:23.634Z,87.40
2023-03-27T21:00:50.078Z,87.50
2023-03-27T21:03:16.349Z,87.69
2023-03-27T21:05:42.753Z,87.90
2023-03-27T21:08:09.066Z,88.10
2023-03-27T21:10:35.562Z,88.31
2023-03-27T21:13:01.927Z,88.53
2023-03-27T21:15:28.284Z,88.76
2023-03-27T21:17:54.662Z,89.00
2023-03-27T21:20:21.030Z,89.21
2023-03-27T21:22:47.693Z,89.44
2023-03-27T21:25:14.080Z,89.59
2023-03-27T21:27:40.457Z,89.81
2023-03-27T21:30:06.850Z,90.04
2023-03-27T21:32:33.194Z,90.27
2023-03-27T21:34:59.560Z,90.48
2023-03-27T21:37:25.892Z,90.67
2023-03-27T21:39:52.299Z,90.89
2023-03-27T21:42:18.632Z,91.14
2023-03-27T21:44:49.674Z,91.34
2023-03-27T21:47:11.350Z,91.54
2023-03-27T21:49:37.737Z,91.73
2023-03-27T21:52:04.065Z,91.89
2023-03-27T21:54:30.433Z,92.09
2023-03-27T21:56:56.848Z,92.28
2023-03-27T21:59:23.174Z,92.49
2023-03-27T22:01:49.585Z,92.62
2023-03-27T22:04:16.259Z,92.75
2023-03-27T22:06:42.557Z,92.89
2023-03-27T22:09:08.931Z,93.05
2023-03-27T22:11:35.332Z,93.22
2023-03-27T22:14:01.666Z,93.36
2023-03-27T22:16:28.031Z,93.44
2023-03-27T22:18:54.396Z,93.61
2023-03-27T22:21:20.729Z,93.71
2023-03-27T22:23:47.096Z,93.89
2023-03-27T22:26:13.451Z,94.04
2023-03-27T22:28:39.835Z,94.12
2023-03-27T22:31:06.210Z,94.13
2023-03-27T22:33:32.580Z,94.10
2023-03-27T22:35:59.283Z,94.15
2023-03-27T22:38:25.337Z,94.20
2023-03-27T22:40:51.663Z,94.21
2023-03-27T22:43:22.820Z,94.26
2023-03-27T22:45:44.428Z,94.28
2023-03-27T22:48:13.013Z,94.32
2023-03-27T22:50:39.334Z,94.38
2023-03-27T22:53:05.785Z,94.49
2023-03-27T22:55:32.098Z,94.58
2023-03-27T22:57:58.568Z,94.72
2023-03-27T23:00:25.905Z,94.93
2023-03-27T23:02:52.315Z,95.05
2023-03-27T23:05:18.567Z,95.08
2023-03-27T23:07:44.980Z,95.11
2023-03-27T23:10:11.340Z,95.08
2023-03-27T23:12:37.723Z,95.11
2023-03-27T23:15:04.056Z,95.08
2023-03-27T23:17:30.544Z,96.90
2023-03-27T23:19:56.927Z,97.16
2023-03-27T23:22:23.297Z,96.96
2023-03-27T23:24:49.649Z,96.69
2023-03-27T23:27:16.053Z,96.41
2023-03-27T23:29:42.376Z,96.02
2023-03-27T23:32:09.148Z,95.73
2023-03-27T23:34:35.403Z,95.45
2023-03-27T23:37:01.782Z,95.18
2023-03-27T23:39:28.158Z,95.04
2023-03-27T23:41:54.509Z,94.87
2023-03-27T23:44:20.829Z,94.61
2023-03-27T23:46:47.208Z,94.46
2023-03-27T23:49:13.551Z,94.33
2023-03-27T23:51:39.873Z,94.26
2023-03-27T23:54:06.241Z,94.13
2023-03-27T23:56:32.635Z,94.16
2023-03-27T23:58:58.951Z,94.20
